Augusta Regional At Bush Field
KAGS : now visible

Aeroporto :











RITROVATECI SU...

 
LOGIN :

Iscrizione | Disclaimer

   EN    FR    IT 

 









Sommario :    VFR   VFR Marginale   IFR   IFR Intensivo   IFR Molto Intensivo
Visibilità : 
Base nubi : 
>= 8 km
>= 3000ft
5 / 8 km
1000 / 3000 ft
1500m / 5 km
500 / 1000 ft
800 / 1500m
200 / 500 ft
< 800m
< 200 ft
Simboli :   Temporali  Nebbia  Neve Forte  Precipitazioni Forti  Vento > 20 kt







- Altitudine del aeroporto : 144 ft
- Codice IATA : AGS


KAGS - Augusta Regional At Bush Field

ULTIMO METAR :
  • 201553Z 19008KT 10SM BKN023 BKN032 28/22 A3012 RMK AO2 SLP196 T02830222

METARs OBSOLETI :
  • 201453Z 22004KT 10SM SCT013 SCT120 27/23 A3012 RMK AO2 SLP198 60017 T02720233 50004
  • 201413Z 21004KT 6SM HZ FEW009 SCT013 BKN021 26/23 A3012 RMK AO2 T02610233
  • 201353Z 22003KT 5SM BR FEW003 SCT020 25/23 A3012 RMK AO2 RAE19 SLP199 P0002 T02500228
  • 201327Z 00000KT 5SM BR FEW003 BKN019 OVC042 24/23 A3013 RMK AO2 RAE19 P0002 T02390228

TAF KAGS
Valido dal 20 a 15 ore il 21 a 12 ore UTC


201439Z 2015/2112 18006KT 6SM BR SCT008 BKN020
FM201700 18007KT P6SM VCSH SCT015 BKN035
TEMPO 2019/2023 TSRA BKN040CB
FM210900 VRB04KT P6SM OVC012
Nessun NOTAM noto per questo aeroporto.



MetMap, La meteo Aeronautica in un colpo d'occhio ! - Copyright ORBIFLY Dicembre 2007 - Disclaimer

ORBIFLY MET'MAP TEAM :

Programmazione e sviluppo : Alexandra Zaïnal
Concezione e sviluppo : Baudouin d'Aumeries
Co-Programmazione e sviluppo : Marc-Olivier Méhu
Supporto tecnico e logistico : Manuel Goepfert
Aiuto per la traduzione : Arnaldo La Scala

Contatto : metmap@orbifly.com




FONTI E CREDITI :

   NOAA       Earth
Advisory